AirNav   Everest Fuels
 
 1539 users online  

SC72 Chandelle Airport
Greer, South Carolina, USA

GOING TO GREER?


FAA INFORMATION EFFECTIVE 10 SEPTEMBER 2020

Location

FAA Identifier: SC72
Lat/Long: 34-49-22.4350N 082-08-53.3950W
34-49.373917N 082-08.889917W
34.8228986,-82.1481653
(estimated)
Elevation: 850 ft. / 259 m (estimated)
Variation: 04W (1985)
From city: 10 miles SE of GREER, SC
Time zone: UTC -4 (UTC -5 during Standard Time)
Zip code: 29651

Airport Operations

Airport use: Private use. Permission required prior to landing
Activation date: 09/1987
Control tower: no
ARTCC: ATLANTA CENTER
FSS: ANDERSON FLIGHT SERVICE STATION
Attendance: TUE-SAT 0800-1700
Wind indicator: yes
Segmented circle: no

Airport Communications

UNICOM: 122.8
WX ASOS at GSP (6 nm NW): 134.25 (864-879-0614)
WX ASOS at GMU (10 nm W): 127.075 (864-239-0014)
WX AWOS-3 at SPA (11 nm NE): 133.925 (864-587-2529)
WX AWOS-3 at GYH (12 nm W): 127.325 (864-277-5674)

Nearby radio navigation aids

VOR radial/distance  VOR name  Freq  Var
SPAr223/16.7SPARTANBURG VORTAC115.7002W
GRDr001/34.3GREENWOOD VORTAC115.5001W
SUGr172/35.5SUGARLOAF MOUNTAIN VORTAC112.2002W
ELWr052/39.7ELECTRIC CITY VORTAC108.6000E

 
NDB name  Hdg/Dist  Freq  Var  ID
FAIRMONT245/9.324805WFRT ..-. .-. -
JUDKY081/10.352105WGM --. --
UNION COUNTY294/26.332606WUOT ..- --- -
BROAD RIVER157/31.337907WBRA -... .-. .-
CORONACA002/34.323907WGIW --. .. .--
FIRST RIVER232/37.341706WSLP ... .-.. .--.
ENOREE328/39.827807WEOE . --- .

Airport Services

Runway Information

Runway 3/21

Dimensions: 3700 x 50 ft. / 1128 x 15 m
Surface: asphalt
Runway edge markings: PAINTED
RUNWAY 3  RUNWAY 21
Traffic pattern: leftleft
Obstructions: 36 ft. pline, marked, 450 ft. from runwaynone

Airport Ownership and Management from official FAA records

Ownership: Privately-owned
Owner: CHANDELLE PROPERTY OWNERS ASSN, INC
140 CHANDELLE RIDGE DRIVE
WOODRUFF, SC 29388
Phone 864-879-3762
Manager: G. LYNN FLEMING
214 VISTA POINTE DRIVE
GREER, SC 29651
Phone 864-640-9801

Airport Operational Statistics

Aircraft based on the field: 23
Single engine airplanes: 18
Helicopters: 1
Gliders airplanes: 1
Ultralights: 3
    

Additional Remarks

FOR CD CTC ATLANTA ARTCC AT 770-210-7692.

Instrument Procedures

There are no published instrument procedures at SC72.

Some nearby airports with instrument procedures:

KGSP - Greenville Spartanburg International Airport (6 nm NW)
KGMU - Greenville Downtown Airport (10 nm W)
KSPA - Spartanburg Downtown Memorial Airport/Simpson Field (11 nm NE)
KGYH - Donaldson Field Airport (12 nm W)
KLUX - Laurens County Airport (21 nm SE)
 
Loc | Ops | Rwys | IFR | FBO | Links
Com | Nav | Svcs | Stats | Notes
Area around SC72 (Chandelle Airport)
 
Road maps at: MapQuest Bing Google
 
Aerial photo
No photo
 
Sectional chart

 
Airport distance calculator
Flying to Chandelle Airport? Find the distance to fly.

From to SC72

Sunrise and sunset
Times for 18-Sep-2020
 Local
(UTC-4)
 Zulu
(UTC)
Morning civil twilight06:5010:50
Sunrise07:1511:15
Sunset19:2923:29
Evening civil twilight19:5523:55

Current date and time
Zulu (UTC)  18-Sep-2020 18:25:04
Local (UTC-4)  18-Sep-2020 14:25:04
 
METAR
KGSP 
6nm NW 
181753Z 01010KT 10SM FEW036 26/18 A2996 RMK AO2 SLP134 T02610178 10261 20194 58001
KGMU 
10nm W 
181753Z 36009KT 320V020 10SM BKN037 27/18 A2997 RMK AO2 SLP137 T02670178 10278 20206 51000
KGYH 
12nm W 
181747Z 03011G18KT 10SM SCT035 27/17 A2995
KSPA 
16nm NE 
181755Z AUTO 05006KT 10SM OVC041 25/16 A2995 RMK AO2
TAF
KGSP 
6nm NW 
181737Z 1818/1918 03010G17KT P6SM SCT040 BKN250 FM182100 02009KT P6SM FEW050 BKN250 FM190600 03008KT P6SM BKN045 FM191400 04010G18KT P6SM BKN060
KGMU 
10nm W 
181737Z 1818/1918 04009KT P6SM SCT040 BKN250 FM190000 02008KT P6SM FEW050 BKN250 FM190600 03010KT P6SM BKN050 FM191500 05013G20KT P6SM SCT050 BKN100
NOTAMs
Click for the latest NOTAMs
NOTAMs are issued by the DoD/FAA and will open in a separate window not controlled by AirNav.

 

 
 

Would you like to see your business listed on this page?

 If your business provides an interesting product or service to pilots, flight crews, aircraft, or users of the Chandelle Airport, you should consider listing it here.  To start the listing process, click on the button below
 
Add a business
 

Other Pages about Chandelle Airport

Update a link
 
Copyright © AirNav, LLC. All rights reserved. Privacy Policy  Contact